PAY7260 TAPA-MUCU
Flight info
| Callsign | PAY7260 |
|---|---|
| Flight time | 2h 21m |
| Altitude | 38000 |
| Route | GABAR G633 SNOOZ RTE4 JOSHE RTE12 MAZ B892 ANTEX UL577 PAP UA890 DEPSI IMOXO4 |
| Aircraft | A319/M-SDE3FGHIRWY/LB1 |
Departure
| Time | 2026-04-26 19:14 |
|---|---|
| Airport | V. C. Bird International Airport (TAPA) |
Arrival
| Time | 2026-04-26 21:35 |
|---|---|
| Airport | Antonio Maceo International Airport (MUCU) |
| Time | Latitude | Longitude | Altitude | Speed | Heading |
|---|---|---|---|---|---|
| 2026-04-26 18:06 | 17.14123 | -61.79025 | 48 ft | 0 kts | 339° |
| 2026-04-26 19:04 | 17.14109 | -61.79020 | 47 ft | 4 kts | 346° |
| 2026-04-26 19:04 | 17.14082 | -61.79015 | 50 ft | 4 kts | 355° |
| 2026-04-26 19:05 | 17.14058 | -61.79010 | 50 ft | 0 kts | 326° |
| 2026-04-26 19:07 | 17.14059 | -61.79010 | 50 ft | 1 kts | 326° |
| 2026-04-26 19:07 | 17.14067 | -61.79020 | 45 ft | 3 kts | 307° |
| 2026-04-26 19:08 | 17.14073 | -61.79045 | 51 ft | 4 kts | 266° |
| 2026-04-26 19:08 | 17.14053 | -61.79071 | 51 ft | 5 kts | 214° |
| 2026-04-26 19:08 | 17.14014 | -61.79085 | 51 ft | 7 kts | 197° |
| 2026-04-26 19:08 | 17.13962 | -61.79102 | 51 ft | 9 kts | 197° |
| 2026-04-26 19:09 | 17.13897 | -61.79116 | 52 ft | 10 kts | 187° |
| 2026-04-26 19:09 | 17.13823 | -61.79098 | 51 ft | 12 kts | 153° |
| 2026-04-26 19:09 | 17.13755 | -61.79129 | 52 ft | 12 kts | 238° |
| 2026-04-26 19:09 | 17.13709 | -61.79206 | 53 ft | 13 kts | 238° |
| 2026-04-26 19:10 | 17.13655 | -61.79297 | 54 ft | 17 kts | 238° |
| 2026-04-26 19:10 | 17.13582 | -61.79421 | 56 ft | 22 kts | 238° |
| 2026-04-26 19:10 | 17.13489 | -61.79578 | 55 ft | 28 kts | 238° |
| 2026-04-26 19:10 | 17.13374 | -61.79768 | 55 ft | 33 kts | 238° |
| 2026-04-26 19:11 | 17.13254 | -61.79974 | 57 ft | 30 kts | 239° |
| 2026-04-26 19:11 | 17.13154 | -61.80143 | 63 ft | 27 kts | 238° |
| 2026-04-26 19:11 | 17.13056 | -61.80308 | 65 ft | 25 kts | 239° |
| 2026-04-26 19:11 | 17.12982 | -61.80432 | 71 ft | 13 kts | 234° |
| 2026-04-26 19:12 | 17.12903 | -61.80488 | 68 ft | 14 kts | 211° |
| 2026-04-26 19:12 | 17.12862 | -61.80549 | 73 ft | 8 kts | 264° |
| 2026-04-26 19:12 | 17.12895 | -61.80570 | 74 ft | 7 kts | 29° |
| 2026-04-26 19:12 | 17.12915 | -61.80543 | 65 ft | 0 kts | 59° |
| 2026-04-26 19:13 | 17.12915 | -61.80542 | 65 ft | 3 kts | 59° |
| 2026-04-26 19:13 | 17.13046 | -61.80321 | 69 ft | 76 kts | 58° |
| 2026-04-26 19:13 | 17.13453 | -61.79639 | 49 ft | 142 kts | 58° |
| 2026-04-26 19:13 | 17.14051 | -61.78646 | 363 ft | 168 kts | 60° |
| 2026-04-26 19:14 | 17.14698 | -61.77628 | 1119 ft | 166 kts | 63° |
| 2026-04-26 19:14 | 17.15344 | -61.76667 | 1918 ft | 160 kts | 60° |
| 2026-04-26 19:14 | 17.16056 | -61.75676 | 2384 ft | 180 kts | 58° |
| 2026-04-26 19:14 | 17.16321 | -61.75322 | 2545 ft | 186 kts | 58° |
| 2026-04-26 19:15 | 17.18143 | -61.73877 | 3430 ft | 223 kts | 16° |
| 2026-04-26 19:15 | 17.19765 | -61.73930 | 3841 ft | 249 kts | 343° |
| 2026-04-26 19:15 | 17.21299 | -61.74888 | 4395 ft | 268 kts | 313° |
| 2026-04-26 19:15 | 17.22304 | -61.76563 | 5061 ft | 281 kts | 287° |
| 2026-04-26 19:16 | 17.22758 | -61.78601 | 5713 ft | 296 kts | 275° |
| 2026-04-26 19:16 | 17.23051 | -61.80721 | 6870 ft | 289 kts | 276° |
| 2026-04-26 19:16 | 17.23387 | -61.82764 | 8073 ft | 286 kts | 276° |
| 2026-04-26 19:16 | 17.23657 | -61.84841 | 9003 ft | 290 kts | 274° |
| 2026-04-26 19:17 | 17.23868 | -61.86978 | 9965 ft | 293 kts | 274° |
| 2026-04-26 19:17 | 17.24065 | -61.89161 | 10478 ft | 313 kts | 273° |
| 2026-04-26 19:17 | 17.24277 | -61.91481 | 11112 ft | 325 kts | 274° |
| 2026-04-26 19:17 | 17.24507 | -61.93851 | 11925 ft | 330 kts | 274° |
| 2026-04-26 19:18 | 17.24747 | -61.96240 | 12829 ft | 332 kts | 275° |
| 2026-04-26 19:18 | 17.24996 | -61.98654 | 13680 ft | 335 kts | 275° |
| 2026-04-26 19:18 | 17.25252 | -62.01092 | 14413 ft | 339 kts | 276° |
| 2026-04-26 19:18 | 17.25511 | -62.03545 | 15232 ft | 340 kts | 275° |
| 2026-04-26 19:19 | 17.25770 | -62.06015 | 15971 ft | 343 kts | 275° |
| 2026-04-26 19:19 | 17.26031 | -62.08503 | 16689 ft | 346 kts | 275° |
| 2026-04-26 19:19 | 17.26292 | -62.11016 | 17454 ft | 348 kts | 275° |
| 2026-04-26 19:19 | 17.26554 | -62.13546 | 18185 ft | 351 kts | 275° |
| 2026-04-26 19:20 | 17.26818 | -62.16095 | 18815 ft | 354 kts | 275° |
| 2026-04-26 19:20 | 17.26907 | -62.16961 | 19024 ft | 355 kts | 275° |
| 2026-04-26 19:20 | 17.27352 | -62.21270 | 20017 ft | 362 kts | 274° |
| 2026-04-26 19:20 | 17.27624 | -62.23903 | 20617 ft | 366 kts | 274° |
| 2026-04-26 19:21 | 17.27879 | -62.26380 | 21191 ft | 368 kts | 274° |
| 2026-04-26 19:21 | 17.28152 | -62.29058 | 21794 ft | 372 kts | 274° |
| 2026-04-26 19:21 | 17.28430 | -62.31760 | 22393 ft | 375 kts | 274° |
| 2026-04-26 19:21 | 17.28710 | -62.34489 | 22988 ft | 379 kts | 274° |
| 2026-04-26 19:22 | 17.28994 | -62.37243 | 23571 ft | 383 kts | 274° |
| 2026-04-26 19:22 | 17.29280 | -62.40021 | 24071 ft | 386 kts | 274° |
| 2026-04-26 19:22 | 17.29566 | -62.42822 | 24560 ft | 388 kts | 274° |
| 2026-04-26 19:22 | 17.29854 | -62.45637 | 25060 ft | 390 kts | 274° |
| 2026-04-26 19:23 | 17.30145 | -62.48465 | 25553 ft | 392 kts | 274° |
| 2026-04-26 19:23 | 17.30437 | -62.51315 | 26042 ft | 395 kts | 274° |
| 2026-04-26 19:23 | 17.30630 | -62.53210 | 26352 ft | 396 kts | 273° |
| 2026-04-26 19:23 | 17.31021 | -62.57059 | 26988 ft | 400 kts | 273° |
| 2026-04-26 19:24 | 17.31220 | -62.59017 | 27301 ft | 401 kts | 274° |
| 2026-04-26 19:24 | 17.31515 | -62.61930 | 27762 ft | 404 kts | 273° |
| 2026-04-26 19:24 | 17.32109 | -62.67802 | 28678 ft | 409 kts | 274° |
| 2026-04-26 19:25 | 17.32409 | -62.70770 | 29133 ft | 411 kts | 274° |
| 2026-04-26 19:25 | 17.32608 | -62.72741 | 29429 ft | 413 kts | 274° |
| 2026-04-26 19:25 | 17.33011 | -62.76751 | 30008 ft | 416 kts | 274° |
| 2026-04-26 19:25 | 17.33314 | -62.79767 | 30384 ft | 418 kts | 274° |
| 2026-04-26 19:26 | 17.33622 | -62.82805 | 30787 ft | 420 kts | 273° |
| 2026-04-26 19:26 | 17.33929 | -62.85848 | 31194 ft | 421 kts | 273° |
| 2026-04-26 19:26 | 17.34236 | -62.88899 | 31586 ft | 423 kts | 273° |
| 2026-04-26 19:26 | 17.34541 | -62.91960 | 31963 ft | 424 kts | 273° |
| 2026-04-26 19:27 | 17.34844 | -62.95040 | 32335 ft | 426 kts | 273° |
| 2026-04-26 19:27 | 17.35148 | -62.98124 | 32758 ft | 426 kts | 272° |
| 2026-04-26 19:27 | 17.35597 | -63.01179 | 33284 ft | 426 kts | 279° |
| 2026-04-26 19:27 | 17.36288 | -63.04193 | 33822 ft | 424 kts | 279° |
| 2026-04-26 19:28 | 17.36976 | -63.07184 | 34321 ft | 422 kts | 279° |
| 2026-04-26 19:28 | 17.37661 | -63.10166 | 34786 ft | 420 kts | 279° |
| 2026-04-26 19:28 | 17.38343 | -63.13137 | 35225 ft | 419 kts | 279° |
| 2026-04-26 19:28 | 17.39020 | -63.16101 | 35612 ft | 419 kts | 279° |
| 2026-04-26 19:29 | 17.39698 | -63.19067 | 35989 ft | 419 kts | 279° |
| 2026-04-26 19:29 | 17.40374 | -63.22029 | 36371 ft | 418 kts | 279° |
| 2026-04-26 19:29 | 17.41049 | -63.24991 | 36760 ft | 417 kts | 278° |
| 2026-04-26 19:29 | 17.41716 | -63.27940 | 37141 ft | 417 kts | 278° |
| 2026-04-26 19:30 | 17.42383 | -63.30892 | 37507 ft | 416 kts | 278° |
| 2026-04-26 19:30 | 17.43049 | -63.33835 | 37869 ft | 415 kts | 278° |
| 2026-04-26 19:30 | 17.43713 | -63.36777 | 37987 ft | 414 kts | 278° |
| 2026-04-26 19:30 | 17.44160 | -63.38753 | 37998 ft | 411 kts | 278° |
| 2026-04-26 19:31 | 17.45695 | -63.45522 | 37998 ft | 407 kts | 278° |
| 2026-04-26 19:31 | 17.46998 | -63.51286 | 37991 ft | 406 kts | 278° |
| 2026-04-26 19:32 | 17.48303 | -63.57042 | 37991 ft | 406 kts | 278° |
| 2026-04-26 19:32 | 17.49607 | -63.62799 | 37987 ft | 406 kts | 278° |
| 2026-04-26 19:33 | 17.50898 | -63.68556 | 37987 ft | 406 kts | 278° |
| 2026-04-26 19:33 | 17.52189 | -63.74317 | 37988 ft | 406 kts | 278° |
| 2026-04-26 19:34 | 17.53481 | -63.80078 | 37993 ft | 406 kts | 278° |
| 2026-04-26 19:34 | 17.54770 | -63.85837 | 37993 ft | 406 kts | 278° |
| 2026-04-26 19:35 | 17.56059 | -63.91593 | 37986 ft | 406 kts | 278° |
| 2026-04-26 19:35 | 17.57349 | -63.97349 | 37986 ft | 406 kts | 278° |
| 2026-04-26 19:36 | 17.58427 | -64.02174 | 37988 ft | 406 kts | 278° |
| 2026-04-26 19:36 | 17.59916 | -64.08872 | 37977 ft | 406 kts | 278° |
| 2026-04-26 19:37 | 17.61205 | -64.14650 | 37972 ft | 407 kts | 278° |
| 2026-04-26 19:37 | 17.62494 | -64.20437 | 37969 ft | 408 kts | 278° |
| 2026-04-26 19:38 | 17.63781 | -64.26238 | 37977 ft | 409 kts | 278° |
| 2026-04-26 19:38 | 17.65075 | -64.32086 | 37980 ft | 409 kts | 278° |
| 2026-04-26 19:39 | 17.66359 | -64.37896 | 37994 ft | 409 kts | 278° |
| 2026-04-26 19:39 | 17.67643 | -64.43712 | 37997 ft | 410 kts | 278° |
| 2026-04-26 19:40 | 17.68931 | -64.49530 | 38013 ft | 409 kts | 278° |
| 2026-04-26 19:40 | 17.70217 | -64.55334 | 38019 ft | 408 kts | 278° |
| 2026-04-26 19:41 | 17.71489 | -64.61117 | 38015 ft | 406 kts | 278° |
| 2026-04-26 19:41 | 17.72538 | -64.65914 | 38019 ft | 406 kts | 278° |
| 2026-04-26 19:42 | 17.74007 | -64.72653 | 38022 ft | 405 kts | 277° |
| 2026-04-26 19:42 | 17.75225 | -64.78418 | 38024 ft | 405 kts | 277° |
| 2026-04-26 19:43 | 17.76428 | -64.84185 | 38022 ft | 405 kts | 277° |
| 2026-04-26 19:43 | 17.77635 | -64.89949 | 38017 ft | 404 kts | 277° |
| 2026-04-26 19:44 | 17.78846 | -64.95709 | 38014 ft | 404 kts | 277° |
| 2026-04-26 19:44 | 17.80055 | -65.01473 | 38008 ft | 404 kts | 277° |
| 2026-04-26 19:45 | 17.81256 | -65.07230 | 37998 ft | 404 kts | 277° |
| 2026-04-26 19:45 | 17.82459 | -65.12984 | 37984 ft | 404 kts | 277° |
| 2026-04-26 19:46 | 17.83667 | -65.18736 | 37979 ft | 404 kts | 277° |
| 2026-04-26 19:46 | 17.84874 | -65.24527 | 37978 ft | 404 kts | 277° |
| 2026-04-26 19:47 | 17.85864 | -65.29314 | 37980 ft | 404 kts | 277° |
| 2026-04-26 19:47 | 17.87262 | -65.36043 | 37982 ft | 404 kts | 277° |
| 2026-04-26 19:48 | 17.88460 | -65.41804 | 37980 ft | 404 kts | 277° |
| 2026-04-26 19:48 | 17.89651 | -65.47572 | 37980 ft | 404 kts | 277° |
| 2026-04-26 19:49 | 17.90839 | -65.53338 | 37979 ft | 404 kts | 277° |
| 2026-04-26 19:49 | 17.92035 | -65.59109 | 37979 ft | 404 kts | 277° |
| 2026-04-26 19:50 | 17.93226 | -65.64881 | 37984 ft | 404 kts | 276° |
| 2026-04-26 19:50 | 17.94412 | -65.70657 | 37982 ft | 404 kts | 276° |
| 2026-04-26 19:51 | 17.95597 | -65.76429 | 37986 ft | 405 kts | 276° |
| 2026-04-26 19:51 | 17.96781 | -65.82205 | 37986 ft | 405 kts | 276° |
| 2026-04-26 19:52 | 17.97997 | -65.87978 | 37985 ft | 407 kts | 281° |
| 2026-04-26 19:52 | 18.00188 | -65.93527 | 37986 ft | 413 kts | 288° |
| 2026-04-26 19:53 | 18.02544 | -65.99026 | 37985 ft | 413 kts | 288° |
| 2026-04-26 19:53 | 18.04897 | -66.04542 | 37988 ft | 414 kts | 288° |
| 2026-04-26 19:54 | 18.07260 | -66.10088 | 37991 ft | 413 kts | 288° |
| 2026-04-26 19:54 | 18.09607 | -66.15601 | 37993 ft | 413 kts | 287° |
| 2026-04-26 19:55 | 18.11947 | -66.21116 | 37989 ft | 413 kts | 287° |
| 2026-04-26 19:55 | 18.14286 | -66.26621 | 38002 ft | 413 kts | 287° |
| 2026-04-26 19:56 | 18.16234 | -66.31199 | 37999 ft | 412 kts | 288° |
| 2026-04-26 19:56 | 18.18578 | -66.36703 | 37997 ft | 412 kts | 288° |
| 2026-04-26 19:57 | 18.20912 | -66.42209 | 37997 ft | 412 kts | 287° |
| 2026-04-26 19:57 | 18.23225 | -66.47721 | 37999 ft | 411 kts | 285° |
| 2026-04-26 19:58 | 18.24325 | -66.53465 | 37993 ft | 395 kts | 266° |
| 2026-04-26 19:58 | 18.24440 | -66.59237 | 37985 ft | 395 kts | 266° |
| 2026-04-26 19:59 | 18.24579 | -66.65007 | 37997 ft | 395 kts | 266° |
| 2026-04-26 19:59 | 18.24711 | -66.70777 | 37996 ft | 394 kts | 266° |
| 2026-04-26 20:00 | 18.24831 | -66.76577 | 37986 ft | 394 kts | 266° |
| 2026-04-26 20:00 | 18.24961 | -66.82331 | 37980 ft | 393 kts | 266° |
| 2026-04-26 20:01 | 18.25085 | -66.88083 | 37985 ft | 394 kts | 266° |
| 2026-04-26 20:01 | 18.25205 | -66.93837 | 37979 ft | 393 kts | 266° |
| 2026-04-26 20:02 | 18.25328 | -66.99583 | 37988 ft | 393 kts | 266° |
| 2026-04-26 20:02 | 18.25430 | -67.04354 | 37978 ft | 392 kts | 266° |
| 2026-04-26 20:03 | 18.25562 | -67.11058 | 37976 ft | 392 kts | 266° |
| 2026-04-26 20:03 | 18.26086 | -67.16789 | 37963 ft | 401 kts | 279° |
| 2026-04-26 20:04 | 18.27590 | -67.22448 | 37970 ft | 401 kts | 279° |
| 2026-04-26 20:04 | 18.29091 | -67.28104 | 37976 ft | 401 kts | 279° |
| 2026-04-26 20:05 | 18.30585 | -67.33758 | 37972 ft | 401 kts | 279° |
| 2026-04-26 20:05 | 18.32070 | -67.39417 | 37971 ft | 401 kts | 279° |
| 2026-04-26 20:06 | 18.33553 | -67.45073 | 37967 ft | 401 kts | 279° |
| 2026-04-26 20:06 | 18.35047 | -67.50721 | 37962 ft | 401 kts | 279° |
| 2026-04-26 20:07 | 18.36536 | -67.56375 | 37968 ft | 401 kts | 279° |
| 2026-04-26 20:07 | 18.38029 | -67.62065 | 37971 ft | 400 kts | 279° |
| 2026-04-26 20:08 | 18.39504 | -67.67708 | 37961 ft | 400 kts | 279° |
| 2026-04-26 20:08 | 18.40979 | -67.73359 | 37963 ft | 400 kts | 279° |
| 2026-04-26 20:09 | 18.42457 | -67.79005 | 37965 ft | 400 kts | 279° |
| 2026-04-26 20:09 | 18.43933 | -67.84653 | 37968 ft | 400 kts | 279° |
| 2026-04-26 20:10 | 18.45403 | -67.90293 | 37988 ft | 399 kts | 278° |
| 2026-04-26 20:10 | 18.46872 | -67.95928 | 37981 ft | 398 kts | 278° |
| 2026-04-26 20:11 | 18.47882 | -68.01577 | 37976 ft | 387 kts | 265° |
| 2026-04-26 20:12 | 18.47694 | -68.10020 | 37967 ft | 384 kts | 263° |
| 2026-04-26 20:12 | 18.47565 | -68.15647 | 37938 ft | 384 kts | 263° |
| 2026-04-26 20:13 | 18.47429 | -68.21284 | 37945 ft | 385 kts | 263° |
| 2026-04-26 20:13 | 18.47293 | -68.26928 | 37944 ft | 386 kts | 263° |
| 2026-04-26 20:14 | 18.47162 | -68.32580 | 37942 ft | 386 kts | 263° |
| 2026-04-26 20:14 | 18.47022 | -68.38231 | 37945 ft | 386 kts | 263° |
| 2026-04-26 20:15 | 18.46877 | -68.43885 | 37950 ft | 386 kts | 263° |
| 2026-04-26 20:15 | 18.46731 | -68.49536 | 37951 ft | 386 kts | 263° |
| 2026-04-26 20:16 | 18.46584 | -68.55226 | 37966 ft | 386 kts | 264° |
| 2026-04-26 20:16 | 18.46448 | -68.60860 | 37973 ft | 384 kts | 264° |
| 2026-04-26 20:17 | 18.46304 | -68.66481 | 37978 ft | 384 kts | 264° |
| 2026-04-26 20:17 | 18.46153 | -68.72093 | 37980 ft | 383 kts | 264° |
| 2026-04-26 20:18 | 18.46004 | -68.77699 | 37982 ft | 383 kts | 264° |
| 2026-04-26 20:18 | 18.45850 | -68.83298 | 37983 ft | 382 kts | 264° |
| 2026-04-26 20:19 | 18.45696 | -68.88899 | 37987 ft | 382 kts | 264° |
| 2026-04-26 20:19 | 18.45555 | -68.94489 | 37987 ft | 382 kts | 264° |
| 2026-04-26 20:20 | 18.45399 | -69.00075 | 37985 ft | 381 kts | 264° |
| 2026-04-26 20:20 | 18.45238 | -69.05658 | 37978 ft | 381 kts | 264° |
| 2026-04-26 20:21 | 18.45083 | -69.11237 | 37972 ft | 381 kts | 264° |
| 2026-04-26 20:21 | 18.44924 | -69.16814 | 37965 ft | 381 kts | 264° |
| 2026-04-26 20:22 | 18.44758 | -69.22385 | 37964 ft | 381 kts | 264° |
| 2026-04-26 20:22 | 18.44592 | -69.27958 | 37954 ft | 381 kts | 264° |
| 2026-04-26 20:23 | 18.44430 | -69.33569 | 37946 ft | 381 kts | 264° |
| 2026-04-26 20:23 | 18.44264 | -69.39142 | 37943 ft | 381 kts | 264° |
| 2026-04-26 20:24 | 18.44092 | -69.44718 | 37943 ft | 381 kts | 264° |
| 2026-04-26 20:24 | 18.43923 | -69.50293 | 37941 ft | 381 kts | 264° |
| 2026-04-26 20:25 | 18.43754 | -69.55868 | 37944 ft | 381 kts | 264° |
| 2026-04-26 20:25 | 18.43578 | -69.61438 | 37943 ft | 381 kts | 264° |
| 2026-04-26 20:26 | 18.43409 | -69.67012 | 37941 ft | 381 kts | 264° |
| 2026-04-26 20:26 | 18.43383 | -69.72593 | 37940 ft | 382 kts | 266° |
| 2026-04-26 20:27 | 18.43449 | -69.78184 | 37942 ft | 382 kts | 266° |
| 2026-04-26 20:27 | 18.43500 | -69.83774 | 37939 ft | 382 kts | 265° |
| 2026-04-26 20:28 | 18.43525 | -69.89361 | 37940 ft | 381 kts | 265° |
| 2026-04-26 20:28 | 18.43543 | -69.94945 | 37942 ft | 381 kts | 265° |
| 2026-04-26 20:29 | 18.43814 | -70.00535 | 37941 ft | 384 kts | 270° |
| 2026-04-26 20:29 | 18.44305 | -70.06132 | 37940 ft | 384 kts | 270° |
| 2026-04-26 20:30 | 18.44716 | -70.10820 | 37941 ft | 384 kts | 270° |
| 2026-04-26 20:30 | 18.45187 | -70.16419 | 37941 ft | 383 kts | 269° |
| 2026-04-26 20:31 | 18.45458 | -70.22010 | 37950 ft | 382 kts | 267° |
| 2026-04-26 20:31 | 18.45644 | -70.27598 | 37944 ft | 382 kts | 267° |
| 2026-04-26 20:32 | 18.45848 | -70.33181 | 37923 ft | 380 kts | 268° |
| 2026-04-26 20:32 | 18.46076 | -70.38753 | 37949 ft | 383 kts | 267° |
| 2026-04-26 20:33 | 18.46308 | -70.44362 | 37956 ft | 383 kts | 267° |
| 2026-04-26 20:33 | 18.46539 | -70.49971 | 37951 ft | 383 kts | 267° |
| 2026-04-26 20:34 | 18.46766 | -70.55558 | 37949 ft | 382 kts | 267° |
| 2026-04-26 20:34 | 18.46988 | -70.61171 | 37948 ft | 384 kts | 267° |
| 2026-04-26 20:35 | 18.47215 | -70.66786 | 37949 ft | 384 kts | 267° |
| 2026-04-26 20:35 | 18.47441 | -70.72400 | 37949 ft | 384 kts | 267° |
| 2026-04-26 20:36 | 18.47661 | -70.78051 | 37940 ft | 383 kts | 267° |
| 2026-04-26 20:36 | 18.47880 | -70.83661 | 37937 ft | 383 kts | 267° |
| 2026-04-26 20:37 | 18.48098 | -70.89272 | 37937 ft | 384 kts | 267° |
| 2026-04-26 20:37 | 18.48314 | -70.94882 | 37932 ft | 384 kts | 267° |
| 2026-04-26 20:38 | 18.48530 | -71.00498 | 37933 ft | 384 kts | 267° |
| 2026-04-26 20:38 | 18.48742 | -71.06110 | 37930 ft | 383 kts | 267° |
| 2026-04-26 20:39 | 18.48953 | -71.11725 | 37929 ft | 383 kts | 267° |
| 2026-04-26 20:39 | 18.49159 | -71.17335 | 37922 ft | 384 kts | 267° |
| 2026-04-26 20:40 | 18.49370 | -71.22958 | 37900 ft | 385 kts | 267° |
| 2026-04-26 20:40 | 18.49578 | -71.28595 | 37904 ft | 386 kts | 267° |
| 2026-04-26 20:41 | 18.49778 | -71.34239 | 37907 ft | 386 kts | 267° |
| 2026-04-26 20:41 | 18.49985 | -71.39891 | 37913 ft | 386 kts | 267° |
| 2026-04-26 20:42 | 18.50191 | -71.45541 | 37913 ft | 386 kts | 267° |
| 2026-04-26 20:42 | 18.50387 | -71.51195 | 37917 ft | 386 kts | 267° |
| 2026-04-26 20:43 | 18.50586 | -71.56889 | 37934 ft | 386 kts | 267° |
| 2026-04-26 20:43 | 18.50788 | -71.62542 | 37931 ft | 386 kts | 267° |
| 2026-04-26 20:44 | 18.50984 | -71.68184 | 37923 ft | 385 kts | 266° |
| 2026-04-26 20:44 | 18.51175 | -71.73829 | 37930 ft | 385 kts | 266° |
| 2026-04-26 20:45 | 18.51367 | -71.79471 | 37932 ft | 385 kts | 266° |
| 2026-04-26 20:45 | 18.51559 | -71.85110 | 37933 ft | 385 kts | 267° |
| 2026-04-26 20:46 | 18.52008 | -71.90755 | 37932 ft | 390 kts | 272° |
| 2026-04-26 20:46 | 18.52824 | -71.96395 | 37938 ft | 389 kts | 273° |
| 2026-04-26 20:47 | 18.53632 | -72.02028 | 37935 ft | 389 kts | 272° |
| 2026-04-26 20:47 | 18.54428 | -72.07656 | 37933 ft | 388 kts | 272° |
| 2026-04-26 20:48 | 18.55227 | -72.13278 | 37931 ft | 388 kts | 272° |
| 2026-04-26 20:48 | 18.56026 | -72.18899 | 37914 ft | 388 kts | 272° |
| 2026-04-26 20:49 | 18.56822 | -72.24521 | 37919 ft | 388 kts | 272° |
| 2026-04-26 20:49 | 18.57613 | -72.30135 | 37925 ft | 387 kts | 273° |
| 2026-04-26 20:50 | 18.58604 | -72.35729 | 37924 ft | 389 kts | 276° |
| 2026-04-26 20:50 | 18.59789 | -72.41299 | 37926 ft | 389 kts | 276° |
| 2026-04-26 20:51 | 18.60961 | -72.46860 | 37916 ft | 388 kts | 276° |
| 2026-04-26 20:51 | 18.62090 | -72.52455 | 37919 ft | 388 kts | 276° |
| 2026-04-26 20:52 | 18.63201 | -72.58018 | 37945 ft | 387 kts | 276° |
| 2026-04-26 20:52 | 18.64308 | -72.63560 | 37960 ft | 386 kts | 276° |
| 2026-04-26 20:53 | 18.65406 | -72.69085 | 37954 ft | 384 kts | 276° |
| 2026-04-26 20:53 | 18.66502 | -72.74589 | 37943 ft | 383 kts | 276° |
| 2026-04-26 20:54 | 18.67591 | -72.80081 | 37937 ft | 382 kts | 276° |
| 2026-04-26 20:54 | 18.68687 | -72.85565 | 37937 ft | 382 kts | 276° |
| 2026-04-26 20:55 | 18.69780 | -72.91042 | 37933 ft | 382 kts | 276° |
| 2026-04-26 20:55 | 18.70864 | -72.96521 | 37947 ft | 382 kts | 277° |
| 2026-04-26 20:56 | 18.72083 | -73.01987 | 37940 ft | 383 kts | 278° |
| 2026-04-26 20:56 | 18.73370 | -73.07441 | 37937 ft | 383 kts | 278° |
| 2026-04-26 20:57 | 18.74642 | -73.12903 | 37938 ft | 383 kts | 278° |
| 2026-04-26 20:57 | 18.75881 | -73.18369 | 37935 ft | 383 kts | 277° |
| 2026-04-26 20:58 | 18.77118 | -73.23840 | 37936 ft | 383 kts | 277° |
| 2026-04-26 20:58 | 18.78364 | -73.29350 | 37936 ft | 383 kts | 277° |
| 2026-04-26 20:59 | 18.79605 | -73.34823 | 37941 ft | 384 kts | 278° |
| 2026-04-26 20:59 | 18.80839 | -73.40297 | 37948 ft | 384 kts | 278° |
| 2026-04-26 21:00 | 18.82075 | -73.45778 | 37942 ft | 384 kts | 278° |
| 2026-04-26 21:00 | 18.83306 | -73.51259 | 37945 ft | 384 kts | 277° |
| 2026-04-26 21:01 | 18.84537 | -73.56745 | 37947 ft | 384 kts | 278° |
| 2026-04-26 21:01 | 18.85771 | -73.62234 | 37948 ft | 384 kts | 278° |
| 2026-04-26 21:02 | 18.87005 | -73.67728 | 37955 ft | 385 kts | 278° |
| 2026-04-26 21:02 | 18.88239 | -73.73222 | 37954 ft | 385 kts | 278° |
| 2026-04-26 21:03 | 18.89266 | -73.77788 | 37949 ft | 385 kts | 278° |
| 2026-04-26 21:03 | 18.90504 | -73.83324 | 37948 ft | 385 kts | 277° |
| 2026-04-26 21:04 | 18.91723 | -73.88824 | 37953 ft | 385 kts | 277° |
| 2026-04-26 21:04 | 18.92949 | -73.94326 | 37951 ft | 385 kts | 277° |
| 2026-04-26 21:05 | 18.94178 | -73.99831 | 37951 ft | 385 kts | 277° |
| 2026-04-26 21:05 | 18.95405 | -74.05334 | 37956 ft | 385 kts | 277° |
| 2026-04-26 21:06 | 18.96617 | -74.10836 | 37959 ft | 384 kts | 277° |
| 2026-04-26 21:06 | 18.97826 | -74.16334 | 37954 ft | 384 kts | 277° |
| 2026-04-26 21:07 | 18.99047 | -74.21833 | 37947 ft | 384 kts | 277° |
| 2026-04-26 21:07 | 19.00262 | -74.27328 | 37950 ft | 384 kts | 277° |
| 2026-04-26 21:08 | 19.01472 | -74.32828 | 37948 ft | 384 kts | 277° |
| 2026-04-26 21:08 | 19.02682 | -74.38328 | 37960 ft | 384 kts | 277° |
| 2026-04-26 21:09 | 19.04376 | -74.43711 | 37953 ft | 392 kts | 288° |
| 2026-04-26 21:09 | 19.06679 | -74.48959 | 37758 ft | 401 kts | 288° |
| 2026-04-26 21:09 | 19.07856 | -74.51649 | 37292 ft | 403 kts | 288° |
| 2026-04-26 21:10 | 19.09032 | -74.54324 | 36846 ft | 399 kts | 289° |
| 2026-04-26 21:10 | 19.10198 | -74.56973 | 36406 ft | 395 kts | 289° |
| 2026-04-26 21:10 | 19.11368 | -74.59634 | 35930 ft | 393 kts | 289° |
| 2026-04-26 21:10 | 19.12512 | -74.62244 | 35469 ft | 390 kts | 289° |
| 2026-04-26 21:11 | 19.13648 | -74.64836 | 35004 ft | 387 kts | 289° |
| 2026-04-26 21:11 | 19.14773 | -74.67411 | 34559 ft | 385 kts | 289° |
| 2026-04-26 21:11 | 19.15893 | -74.69978 | 34080 ft | 383 kts | 289° |
| 2026-04-26 21:11 | 19.17009 | -74.72531 | 33577 ft | 381 kts | 289° |
| 2026-04-26 21:12 | 19.18118 | -74.75067 | 33131 ft | 378 kts | 289° |
| 2026-04-26 21:12 | 19.19217 | -74.77580 | 32664 ft | 375 kts | 290° |
| 2026-04-26 21:12 | 19.20305 | -74.80071 | 32225 ft | 372 kts | 290° |
| 2026-04-26 21:12 | 19.21383 | -74.82540 | 31787 ft | 369 kts | 290° |
| 2026-04-26 21:13 | 19.22453 | -74.84996 | 31356 ft | 367 kts | 290° |
| 2026-04-26 21:13 | 19.23517 | -74.87442 | 30927 ft | 364 kts | 290° |
| 2026-04-26 21:13 | 19.24575 | -74.89873 | 30506 ft | 363 kts | 290° |
| 2026-04-26 21:13 | 19.25628 | -74.92288 | 30100 ft | 361 kts | 290° |
| 2026-04-26 21:14 | 19.26679 | -74.94698 | 29637 ft | 359 kts | 290° |
| 2026-04-26 21:14 | 19.27721 | -74.97091 | 29245 ft | 357 kts | 291° |
| 2026-04-26 21:14 | 19.28752 | -74.99468 | 28862 ft | 354 kts | 291° |
| 2026-04-26 21:14 | 19.29770 | -75.01824 | 28476 ft | 351 kts | 291° |
| 2026-04-26 21:15 | 19.30783 | -75.04160 | 28092 ft | 348 kts | 291° |
| 2026-04-26 21:15 | 19.31788 | -75.06478 | 27711 ft | 345 kts | 291° |
| 2026-04-26 21:15 | 19.32787 | -75.08777 | 27334 ft | 342 kts | 291° |
| 2026-04-26 21:15 | 19.33780 | -75.11055 | 26941 ft | 340 kts | 292° |
| 2026-04-26 21:16 | 19.34764 | -75.13318 | 26554 ft | 337 kts | 292° |
| 2026-04-26 21:16 | 19.35739 | -75.15568 | 26160 ft | 335 kts | 292° |
| 2026-04-26 21:16 | 19.36711 | -75.17805 | 25748 ft | 333 kts | 292° |
| 2026-04-26 21:16 | 19.37676 | -75.20031 | 25352 ft | 332 kts | 292° |
| 2026-04-26 21:17 | 19.38651 | -75.22283 | 24927 ft | 331 kts | 293° |
| 2026-04-26 21:17 | 19.39610 | -75.24498 | 24501 ft | 331 kts | 293° |
| 2026-04-26 21:17 | 19.40568 | -75.26713 | 24080 ft | 331 kts | 293° |
| 2026-04-26 21:17 | 19.41525 | -75.28933 | 23652 ft | 331 kts | 294° |
| 2026-04-26 21:18 | 19.42482 | -75.31151 | 23173 ft | 332 kts | 294° |
| 2026-04-26 21:18 | 19.43451 | -75.33393 | 22557 ft | 337 kts | 294° |
| 2026-04-26 21:18 | 19.44432 | -75.35662 | 21947 ft | 340 kts | 294° |
| 2026-04-26 21:18 | 19.45422 | -75.37953 | 21344 ft | 344 kts | 294° |
| 2026-04-26 21:19 | 19.46421 | -75.40266 | 20759 ft | 346 kts | 294° |
| 2026-04-26 21:19 | 19.47423 | -75.42595 | 20187 ft | 349 kts | 294° |
| 2026-04-26 21:19 | 19.48430 | -75.44942 | 19631 ft | 351 kts | 294° |
| 2026-04-26 21:19 | 19.49443 | -75.47298 | 19074 ft | 352 kts | 294° |
| 2026-04-26 21:20 | 19.50459 | -75.49665 | 18532 ft | 354 kts | 294° |
| 2026-04-26 21:20 | 19.51481 | -75.52042 | 17959 ft | 355 kts | 294° |
| 2026-04-26 21:20 | 19.52508 | -75.54422 | 17343 ft | 356 kts | 294° |
| 2026-04-26 21:20 | 19.53538 | -75.56811 | 16734 ft | 356 kts | 294° |
| 2026-04-26 21:21 | 19.54569 | -75.59204 | 16148 ft | 357 kts | 294° |
| 2026-04-26 21:21 | 19.55604 | -75.61600 | 15570 ft | 358 kts | 294° |
| 2026-04-26 21:21 | 19.56635 | -75.63995 | 15003 ft | 358 kts | 294° |
| 2026-04-26 21:21 | 19.57664 | -75.66394 | 14488 ft | 357 kts | 294° |
| 2026-04-26 21:22 | 19.58673 | -75.68746 | 14361 ft | 343 kts | 294° |
| 2026-04-26 21:22 | 19.59638 | -75.70998 | 14237 ft | 327 kts | 293° |
| 2026-04-26 21:22 | 19.60558 | -75.73144 | 14121 ft | 312 kts | 293° |
| 2026-04-26 21:23 | 19.62312 | -75.77237 | 13607 ft | 301 kts | 293° |
| 2026-04-26 21:23 | 19.63173 | -75.79252 | 13282 ft | 300 kts | 293° |
| 2026-04-26 21:23 | 19.64053 | -75.81248 | 12957 ft | 298 kts | 297° |
| 2026-04-26 21:23 | 19.65206 | -75.83078 | 12576 ft | 299 kts | 304° |
| 2026-04-26 21:24 | 19.66423 | -75.84885 | 12114 ft | 302 kts | 304° |
| 2026-04-26 21:24 | 19.67644 | -75.86706 | 11700 ft | 303 kts | 304° |
| 2026-04-26 21:24 | 19.68867 | -75.88530 | 11282 ft | 304 kts | 304° |
| 2026-04-26 21:24 | 19.70090 | -75.90357 | 10876 ft | 304 kts | 304° |
| 2026-04-26 21:25 | 19.71325 | -75.92208 | 10474 ft | 303 kts | 304° |
| 2026-04-26 21:25 | 19.72540 | -75.94031 | 10080 ft | 302 kts | 304° |
| 2026-04-26 21:25 | 19.73754 | -75.95851 | 9672 ft | 301 kts | 304° |
| 2026-04-26 21:25 | 19.74959 | -75.97658 | 9241 ft | 300 kts | 304° |
| 2026-04-26 21:26 | 19.76162 | -75.99460 | 8810 ft | 298 kts | 304° |
| 2026-04-26 21:26 | 19.77358 | -76.01251 | 8388 ft | 297 kts | 304° |
| 2026-04-26 21:26 | 19.78548 | -76.03034 | 7978 ft | 295 kts | 304° |
| 2026-04-26 21:26 | 19.79727 | -76.04801 | 7664 ft | 289 kts | 304° |
| 2026-04-26 21:27 | 19.80863 | -76.06505 | 7531 ft | 281 kts | 304° |
| 2026-04-26 21:27 | 19.81988 | -76.08195 | 7287 ft | 279 kts | 304° |
| 2026-04-26 21:27 | 19.83096 | -76.09861 | 7056 ft | 270 kts | 304° |
| 2026-04-26 21:27 | 19.84187 | -76.11414 | 6737 ft | 258 kts | 313° |
| 2026-04-26 21:28 | 19.85593 | -76.12546 | 6339 ft | 252 kts | 333° |
| 2026-04-26 21:28 | 19.87241 | -76.13096 | 5917 ft | 248 kts | 352° |
| 2026-04-26 21:28 | 19.88949 | -76.13037 | 5499 ft | 245 kts | 11° |
| 2026-04-26 21:28 | 19.90579 | -76.12549 | 5092 ft | 242 kts | 15° |
| 2026-04-26 21:29 | 19.92184 | -76.12048 | 4685 ft | 239 kts | 15° |
| 2026-04-26 21:29 | 19.93672 | -76.11374 | 4524 ft | 225 kts | 34° |
| 2026-04-26 21:29 | 19.94743 | -76.10262 | 4469 ft | 209 kts | 54° |
| 2026-04-26 21:29 | 19.95349 | -76.08903 | 4304 ft | 201 kts | 75° |
| 2026-04-26 21:30 | 19.95510 | -76.07448 | 4089 ft | 197 kts | 87° |
| 2026-04-26 21:30 | 19.95576 | -76.05990 | 3861 ft | 198 kts | 86° |
| 2026-04-26 21:30 | 19.95665 | -76.04538 | 3599 ft | 196 kts | 86° |
| 2026-04-26 21:30 | 19.95731 | -76.03562 | 3429 ft | 195 kts | 86° |
| 2026-04-26 21:31 | 19.95863 | -76.01670 | 3102 ft | 192 kts | 86° |
| 2026-04-26 21:31 | 19.95961 | -76.00266 | 2852 ft | 184 kts | 86° |
| 2026-04-26 21:31 | 19.96052 | -75.98957 | 2635 ft | 175 kts | 87° |
| 2026-04-26 21:31 | 19.96140 | -75.97703 | 2430 ft | 163 kts | 87° |
| 2026-04-26 21:32 | 19.96220 | -75.96566 | 2215 ft | 147 kts | 89° |
| 2026-04-26 21:32 | 19.96295 | -75.95501 | 2040 ft | 140 kts | 89° |
| 2026-04-26 21:32 | 19.96366 | -75.94481 | 1860 ft | 137 kts | 88° |
| 2026-04-26 21:32 | 19.96453 | -75.93481 | 1681 ft | 135 kts | 85° |
| 2026-04-26 21:33 | 19.96603 | -75.92499 | 1544 ft | 134 kts | 81° |
| 2026-04-26 21:33 | 19.96782 | -75.91524 | 1411 ft | 135 kts | 82° |
| 2026-04-26 21:33 | 19.96925 | -75.90543 | 1197 ft | 133 kts | 89° |
| 2026-04-26 21:33 | 19.96954 | -75.89565 | 1013 ft | 132 kts | 94° |
| 2026-04-26 21:34 | 19.96948 | -75.88590 | 803 ft | 134 kts | 94° |
| 2026-04-26 21:34 | 19.96927 | -75.87605 | 614 ft | 135 kts | 92° |
| 2026-04-26 21:34 | 19.96944 | -75.86610 | 484 ft | 135 kts | 89° |
| 2026-04-26 21:34 | 19.96967 | -75.85618 | 355 ft | 134 kts | 93° |
| 2026-04-26 21:35 | 19.96968 | -75.84965 | 247 ft | 132 kts | 90° |
| 2026-04-26 21:35 | 19.96976 | -75.84163 | 236 ft | 72 kts | 89° |
| 2026-04-26 21:35 | 19.96982 | -75.83881 | 236 ft | 21 kts | 91° |
| 2026-04-26 21:35 | 19.96985 | -75.83788 | 236 ft | 4 kts | 84° |
| 2026-04-26 21:36 | 19.96999 | -75.83758 | 238 ft | 8 kts | 43° |
| 2026-04-26 21:36 | 19.97056 | -75.83783 | 235 ft | 11 kts | 317° |
| 2026-04-26 21:36 | 19.97120 | -75.83852 | 234 ft | 15 kts | 310° |
| 2026-04-26 21:36 | 19.97131 | -75.83949 | 234 ft | 14 kts | 270° |
| 2026-04-26 21:37 | 19.97116 | -75.84030 | 236 ft | 8 kts | 245° |
| 2026-04-26 21:37 | 19.97152 | -75.84069 | 234 ft | 10 kts | 5° |
| 2026-04-26 21:37 | 19.97170 | -75.84025 | 234 ft | 7 kts | 91° |
| 2026-04-26 21:37 | 19.97170 | -75.84015 | 234 ft | 0 kts | 92° |
| 2026-04-26 21:39 | 19.97150 | -75.83787 | 233 ft | 0 kts | 89° |